sensor_id;sensor_type;location;lat;lon;timestamp;pressure;altitude;pressure_sealevel;temperature;humidity
8286;BME280;4181;43.416;24.598;2022-11-02T00:01:39;100446.00;;;13.16;100.00
8286;BME280;4181;43.416;24.598;2022-11-02T00:04:06;100459.56;;;13.01;100.00
8286;BME280;4181;43.416;24.598;2022-11-02T00:06:34;100451.63;;;12.78;100.00
8286;BME280;4181;43.416;24.598;2022-11-02T00:09:00;100449.25;;;12.87;100.00
8286;BME280;4181;43.416;24.598;2022-11-02T00:11:25;100437.25;;;12.93;100.00
8286;BME280;4181;43.416;24.598;2022-11-02T00:13:51;100425.59;;;13.02;100.00
8286;BME280;4181;43.416;24.598;2022-11-02T00:16:18;100432.22;;;13.06;100.00
8286;BME280;4181;43.416;24.598;2022-11-02T00:18:46;100444.81;;;13.07;100.00
8286;BME280;4181;43.416;24.598;2022-11-02T00:21:14;100434.69;;;13.08;100.00
8286;BME280;4181;43.416;24.598;2022-11-02T00:23:42;100428.72;;;13.16;100.00
8286;BME280;4181;43.416;24.598;2022-11-02T00:26:08;100435.72;;;13.28;100.00
8286;BME280;4181;43.416;24.598;2022-11-02T00:28:34;100444.56;;;13.40;100.00
8286;BME280;4181;43.416;24.598;2022-11-02T00:30:59;100432.22;;;13.38;100.00
8286;BME280;4181;43.416;24.598;2022-11-02T00:33:25;100436.69;;;13.17;100.00
8286;BME280;4181;43.416;24.598;2022-11-02T00:35:52;100447.22;;;13.30;100.00
8286;BME280;4181;43.416;24.598;2022-11-02T00:38:18;100447.78;;;13.32;100.00
8286;BME280;4181;43.416;24.598;2022-11-02T00:40:44;100459.88;;;13.36;100.00
8286;BME280;4181;43.416;24.598;2022-11-02T00:43:10;100468.50;;;13.18;100.00
8286;BME280;4181;43.416;24.598;2022-11-02T00:45:35;100458.56;;;13.12;100.00
8286;BME280;4181;43.416;24.598;2022-11-02T00:48:02;100467.03;;;13.11;100.00
8286;BME280;4181;43.416;24.598;2022-11-02T00:50:28;100465.41;;;13.10;100.00
8286;BME280;4181;43.416;24.598;2022-11-02T00:52:55;100452.06;;;13.18;100.00
8286;BME280;4181;43.416;24.598;2022-11-02T00:55:20;100436.19;;;13.25;100.00
8286;BME280;4181;43.416;24.598;2022-11-02T00:57:46;100430.84;;;13.40;100.00
8286;BME280;4181;43.416;24.598;2022-11-02T01:00:12;100436.41;;;13.50;100.00
8286;BME280;4181;43.416;24.598;2022-11-02T01:02:39;100441.88;;;13.50;100.00
8286;BME280;4181;43.416;24.598;2022-11-02T01:05:06;100429.34;;;13.59;100.00
8286;BME280;4181;43.416;24.598;2022-11-02T01:07:33;100427.16;;;13.56;100.00
8286;BME280;4181;43.416;24.598;2022-11-02T01:09:58;100435.75;;;13.33;100.00
8286;BME280;4181;43.416;24.598;2022-11-02T01:12:24;100429.69;;;13.31;100.00
8286;BME280;4181;43.416;24.598;2022-11-02T01:14:49;100430.22;;;13.28;100.00
8286;BME280;4181;43.416;24.598;2022-11-02T01:17:15;100457.66;;;13.33;100.00
8286;BME280;4181;43.416;24.598;2022-11-02T01:19:41;100470.00;;;13.36;100.00
8286;BME280;4181;43.416;24.598;2022-11-02T01:22:07;100468.06;;;13.31;100.00
8286;BME280;4181;43.416;24.598;2022-11-02T01:24:33;100474.06;;;13.28;100.00
8286;BME280;4181;43.416;24.598;2022-11-02T01:26:58;100461.13;;;13.24;100.00
8286;BME280;4181;43.416;24.598;2022-11-02T01:29:24;100478.31;;;13.14;100.00
8286;BME280;4181;43.416;24.598;2022-11-02T01:31:49;100477.50;;;12.92;100.00
8286;BME280;4181;43.416;24.598;2022-11-02T01:34:17;100477.97;;;12.84;100.00
8286;BME280;4181;43.416;24.598;2022-11-02T01:36:44;100442.91;;;12.81;100.00
8286;BME280;4181;43.416;24.598;2022-11-02T01:39:11;100432.09;;;12.69;100.00
8286;BME280;4181;43.416;24.598;2022-11-02T01:41:36;100424.09;;;12.63;100.00
8286;BME280;4181;43.416;24.598;2022-11-02T01:44:02;100414.53;;;12.65;100.00
8286;BME280;4181;43.416;24.598;2022-11-02T01:46:40;100410.00;;;12.76;100.00
8286;BME280;4181;43.416;24.598;2022-11-02T01:49:14;100421.50;;;12.78;100.00
8286;BME280;4181;43.416;24.598;2022-11-02T01:54:13;100421.03;;;12.86;100.00
8286;BME280;4181;43.416;24.598;2022-11-02T01:56:41;100397.94;;;12.77;100.00
8286;BME280;4181;43.416;24.598;2022-11-02T01:59:14;100410.56;;;12.78;100.00
8286;BME280;4181;43.416;24.598;2022-11-02T02:01:41;100404.59;;;12.86;100.00
8286;BME280;4181;43.416;24.598;2022-11-02T02:04:07;100414.69;;;13.07;100.00
8286;BME280;4181;43.416;24.598;2022-11-02T02:06:32;100429.00;;;13.14;100.00
8286;BME280;4181;43.416;24.598;2022-11-02T02:09:02;100430.44;;;13.22;100.00
8286;BME280;4181;43.416;24.598;2022-11-02T02:11:34;100440.63;;;13.26;100.00
8286;BME280;4181;43.416;24.598;2022-11-02T02:14:10;100455.44;;;13.30;100.00
8286;BME280;4181;43.416;24.598;2022-11-02T02:19:55;100474.28;;;13.22;100.00
8286;BME280;4181;43.416;24.598;2022-11-02T02:27:22;100457.44;;;13.08;100.00
8286;BME280;4181;43.416;24.598;2022-11-02T02:38:01;100476.56;;;13.03;100.00
8286;BME280;4181;43.416;24.598;2022-11-02T02:40:50;100467.59;;;12.86;100.00
8286;BME280;4181;43.416;24.598;2022-11-02T02:43:33;100474.97;;;12.86;100.00
8286;BME280;4181;43.416;24.598;2022-11-02T02:46:07;100468.06;;;12.78;100.00
8286;BME280;4181;43.416;24.598;2022-11-02T02:48:40;100463.91;;;12.75;100.00
8286;BME280;4181;43.416;24.598;2022-11-02T02:51:10;100459.78;;;12.73;100.00
8286;BME280;4181;43.416;24.598;2022-11-02T02:57:19;100441.47;;;12.78;100.00
8286;BME280;4181;43.416;24.598;2022-11-02T02:59:47;100469.81;;;12.89;100.00
8286;BME280;4181;43.416;24.598;2022-11-02T03:02:17;100476.69;;;12.92;100.00
8286;BME280;4181;43.416;24.598;2022-11-02T03:04:44;100479.19;;;12.93;100.00
8286;BME280;4181;43.416;24.598;2022-11-02T03:07:14;100492.25;;;12.86;100.00
8286;BME280;4181;43.416;24.598;2022-11-02T03:09:48;100496.25;;;12.78;100.00
8286;BME280;4181;43.416;24.598;2022-11-02T03:17:40;100458.47;;;12.54;100.00
8286;BME280;4181;43.416;24.598;2022-11-02T03:20:25;100444.78;;;12.54;100.00
8286;BME280;4181;43.416;24.598;2022-11-02T03:22:56;100440.19;;;12.59;100.00
8286;BME280;4181;43.416;24.598;2022-11-02T03:25:33;100431.03;;;12.49;100.00
8286;BME280;4181;43.416;24.598;2022-11-02T03:28:11;100447.09;;;12.40;100.00
8286;BME280;4181;43.416;24.598;2022-11-02T03:30:51;100438.94;;;12.24;100.00
8286;BME280;4181;43.416;24.598;2022-11-02T03:33:35;100415.81;;;12.31;100.00
8286;BME280;4181;43.416;24.598;2022-11-02T03:36:17;100403.75;;;12.32;100.00
8286;BME280;4181;43.416;24.598;2022-11-02T03:38:51;100396.72;;;12.36;100.00
8286;BME280;4181;43.416;24.598;2022-11-02T03:41:21;100400.50;;;12.35;100.00
8286;BME280;4181;43.416;24.598;2022-11-02T03:43:52;100399.06;;;12.28;100.00
8286;BME280;4181;43.416;24.598;2022-11-02T03:46:20;100403.25;;;12.14;100.00
8286;BME280;4181;43.416;24.598;2022-11-02T03:48:48;100394.47;;;12.12;100.00
8286;BME280;4181;43.416;24.598;2022-11-02T03:51:19;100400.91;;;12.22;100.00
8286;BME280;4181;43.416;24.598;2022-11-02T03:56:30;100400.97;;;12.27;100.00
8286;BME280;4181;43.416;24.598;2022-11-02T03:58:57;100406.03;;;12.40;100.00
8286;BME280;4181;43.416;24.598;2022-11-02T04:01:23;100411.81;;;12.44;100.00
8286;BME280;4181;43.416;24.598;2022-11-02T04:03:50;100413.63;;;12.55;100.00
8286;BME280;4181;43.416;24.598;2022-11-02T04:06:16;100421.63;;;12.61;100.00
8286;BME280;4181;43.416;24.598;2022-11-02T04:08:44;100416.50;;;12.70;100.00
8286;BME280;4181;43.416;24.598;2022-11-02T04:11:11;100419.03;;;12.77;100.00
8286;BME280;4181;43.416;24.598;2022-11-02T04:13:55;100426.38;;;12.71;100.00
8286;BME280;4181;43.416;24.598;2022-11-02T04:16:39;100430.03;;;12.82;100.00
8286;BME280;4181;43.416;24.598;2022-11-02T04:19:05;100426.41;;;12.76;100.00
8286;BME280;4181;43.416;24.598;2022-11-02T04:21:49;100428.63;;;12.79;100.00
8286;BME280;4181;43.416;24.598;2022-11-02T04:24:33;100420.72;;;12.83;100.00
8286;BME280;4181;43.416;24.598;2022-11-02T04:27:17;100429.78;;;12.83;100.00
8286;BME280;4181;43.416;24.598;2022-11-02T04:29:42;100430.13;;;12.92;100.00
8286;BME280;4181;43.416;24.598;2022-11-02T04:32:08;100436.41;;;12.92;100.00
8286;BME280;4181;43.416;24.598;2022-11-02T04:34:33;100440.00;;;12.93;100.00
8286;BME280;4181;43.416;24.598;2022-11-02T04:36:58;100445.09;;;12.84;100.00
8286;BME280;4181;43.416;24.598;2022-11-02T04:39:24;100453.84;;;12.81;100.00
8286;BME280;4181;43.416;24.598;2022-11-02T04:41:49;100454.38;;;12.78;100.00
8286;BME280;4181;43.416;24.598;2022-11-02T04:44:15;100461.44;;;12.74;100.00
8286;BME280;4181;43.416;24.598;2022-11-02T04:46:42;100465.53;;;12.71;100.00
8286;BME280;4181;43.416;24.598;2022-11-02T04:49:08;100460.81;;;12.67;100.00
8286;BME280;4181;43.416;24.598;2022-11-02T04:51:34;100454.91;;;12.53;100.00
8286;BME280;4181;43.416;24.598;2022-11-02T04:54:01;100456.94;;;12.63;100.00
8286;BME280;4181;43.416;24.598;2022-11-02T04:56:27;100456.25;;;12.51;100.00
8286;BME280;4181;43.416;24.598;2022-11-02T04:58:55;100451.97;;;12.38;100.00
8286;BME280;4181;43.416;24.598;2022-11-02T05:01:22;100451.13;;;12.33;100.00
8286;BME280;4181;43.416;24.598;2022-11-02T05:03:50;100443.78;;;12.17;100.00
8286;BME280;4181;43.416;24.598;2022-11-02T05:06:17;100436.53;;;12.27;100.00
8286;BME280;4181;43.416;24.598;2022-11-02T05:08:43;100417.91;;;12.24;100.00
8286;BME280;4181;43.416;24.598;2022-11-02T05:11:10;100425.41;;;12.12;100.00
8286;BME280;4181;43.416;24.598;2022-11-02T05:13:36;100416.13;;;12.35;100.00
8286;BME280;4181;43.416;24.598;2022-11-02T05:16:02;100420.09;;;12.49;100.00
8286;BME280;4181;43.416;24.598;2022-11-02T05:18:28;100436.56;;;12.54;100.00
8286;BME280;4181;43.416;24.598;2022-11-02T05:20:57;100446.31;;;12.66;100.00
8286;BME280;4181;43.416;24.598;2022-11-02T05:23:23;100437.63;;;12.74;100.00
8286;BME280;4181;43.416;24.598;2022-11-02T05:28:21;100425.00;;;13.00;100.00
8286;BME280;4181;43.416;24.598;2022-11-02T05:30:46;100411.94;;;13.07;100.00
8286;BME280;4181;43.416;24.598;2022-11-02T05:33:12;100431.38;;;13.37;100.00
8286;BME280;4181;43.416;24.598;2022-11-02T05:35:37;100430.72;;;13.62;100.00
8286;BME280;4181;43.416;24.598;2022-11-02T05:38:03;100433.63;;;13.87;100.00
8286;BME280;4181;43.416;24.598;2022-11-02T05:40:28;100455.47;;;14.14;100.00
8286;BME280;4181;43.416;24.598;2022-11-02T05:43:00;100460.84;;;14.40;100.00
8286;BME280;4181;43.416;24.598;2022-11-02T05:45:26;100464.22;;;14.67;100.00
8286;BME280;4181;43.416;24.598;2022-11-02T05:47:51;100486.47;;;14.66;100.00
8286;BME280;4181;43.416;24.598;2022-11-02T05:50:18;100474.66;;;14.60;100.00
8286;BME280;4181;43.416;24.598;2022-11-02T05:52:43;100480.41;;;14.64;100.00
8286;BME280;4181;43.416;24.598;2022-11-02T05:55:09;100475.47;;;14.66;100.00
8286;BME280;4181;43.416;24.598;2022-11-02T05:57:35;100459.06;;;14.86;100.00
8286;BME280;4181;43.416;24.598;2022-11-02T06:00:02;100453.31;;;15.02;100.00
8286;BME280;4181;43.416;24.598;2022-11-02T06:02:28;100456.63;;;15.14;100.00
8286;BME280;4181;43.416;24.598;2022-11-02T06:04:53;100464.06;;;15.29;100.00
8286;BME280;4181;43.416;24.598;2022-11-02T06:07:19;100454.19;;;15.38;100.00
8286;BME280;4181;43.416;24.598;2022-11-02T06:09:44;100474.00;;;15.40;100.00
8286;BME280;4181;43.416;24.598;2022-11-02T06:12:09;100470.41;;;15.65;100.00
8286;BME280;4181;43.416;24.598;2022-11-02T06:14:35;100475.34;;;15.73;100.00
8286;BME280;4181;43.416;24.598;2022-11-02T06:17:00;100463.50;;;15.87;100.00
8286;BME280;4181;43.416;24.598;2022-11-02T06:19:26;100467.31;;;16.06;100.00
8286;BME280;4181;43.416;24.598;2022-11-02T06:21:51;100466.69;;;16.34;100.00
8286;BME280;4181;43.416;24.598;2022-11-02T06:24:16;100463.06;;;16.49;100.00
8286;BME280;4181;43.416;24.598;2022-11-02T06:26:42;100462.13;;;16.79;100.00
8286;BME280;4181;43.416;24.598;2022-11-02T06:29:07;100463.34;;;17.01;100.00
8286;BME280;4181;43.416;24.598;2022-11-02T06:31:33;100460.13;;;17.28;100.00
8286;BME280;4181;43.416;24.598;2022-11-02T06:33:59;100452.50;;;17.53;100.00
8286;BME280;4181;43.416;24.598;2022-11-02T06:36:25;100467.34;;;17.86;100.00
8286;BME280;4181;43.416;24.598;2022-11-02T06:38:50;100451.06;;;18.13;100.00
8286;BME280;4181;43.416;24.598;2022-11-02T06:41:16;100457.47;;;18.32;100.00
8286;BME280;4181;43.416;24.598;2022-11-02T06:43:41;100457.84;;;18.49;100.00
8286;BME280;4181;43.416;24.598;2022-11-02T06:46:07;100458.19;;;18.66;100.00
8286;BME280;4181;43.416;24.598;2022-11-02T06:48:34;100460.19;;;18.79;100.00
8286;BME280;4181;43.416;24.598;2022-11-02T06:50:59;100465.66;;;19.03;100.00
8286;BME280;4181;43.416;24.598;2022-11-02T06:53:25;100461.16;;;19.31;100.00
8286;BME280;4181;43.416;24.598;2022-11-02T06:55:56;100462.16;;;19.53;100.00
8286;BME280;4181;43.416;24.598;2022-11-02T06:58:22;100457.72;;;19.71;100.00
8286;BME280;4181;43.416;24.598;2022-11-02T07:00:49;100462.97;;;19.99;100.00
8286;BME280;4181;43.416;24.598;2022-11-02T07:03:15;100463.56;;;20.15;100.00
8286;BME280;4181;43.416;24.598;2022-11-02T07:05:40;100463.16;;;20.35;100.00
8286;BME280;4181;43.416;24.598;2022-11-02T07:08:06;100460.38;;;20.49;100.00
8286;BME280;4181;43.416;24.598;2022-11-02T07:10:31;100463.25;;;20.71;100.00
8286;BME280;4181;43.416;24.598;2022-11-02T07:12:59;100460.56;;;20.79;100.00
8286;BME280;4181;43.416;24.598;2022-11-02T07:15:25;100462.69;;;21.09;100.00
8286;BME280;4181;43.416;24.598;2022-11-02T07:17:51;100464.53;;;21.36;100.00
8286;BME280;4181;43.416;24.598;2022-11-02T07:20:17;100461.63;;;21.63;100.00
8286;BME280;4181;43.416;24.598;2022-11-02T07:22:54;100459.19;;;21.84;100.00
8286;BME280;4181;43.416;24.598;2022-11-02T07:25:20;100451.03;;;21.87;100.00
8286;BME280;4181;43.416;24.598;2022-11-02T07:27:46;100454.38;;;21.98;100.00
8286;BME280;4181;43.416;24.598;2022-11-02T07:30:12;100452.44;;;22.07;100.00
8286;BME280;4181;43.416;24.598;2022-11-02T07:32:39;100442.22;;;22.24;100.00
8286;BME280;4181;43.416;24.598;2022-11-02T07:35:06;100450.94;;;22.40;100.00
8286;BME280;4181;43.416;24.598;2022-11-02T07:37:31;100435.44;;;22.47;100.00
8286;BME280;4181;43.416;24.598;2022-11-02T07:39:57;100445.66;;;22.61;100.00
8286;BME280;4181;43.416;24.598;2022-11-02T07:42:22;100430.44;;;22.75;100.00
8286;BME280;4181;43.416;24.598;2022-11-02T07:44:47;100435.38;;;22.87;100.00
8286;BME280;4181;43.416;24.598;2022-11-02T07:47:14;100435.22;;;23.00;100.00
8286;BME280;4181;43.416;24.598;2022-11-02T07:49:39;100426.88;;;23.17;100.00
8286;BME280;4181;43.416;24.598;2022-11-02T07:52:05;100430.84;;;23.16;100.00
8286;BME280;4181;43.416;24.598;2022-11-02T07:54:33;100436.06;;;23.09;100.00
8286;BME280;4181;43.416;24.598;2022-11-02T07:56:59;100431.00;;;23.20;100.00
8286;BME280;4181;43.416;24.598;2022-11-02T07:59:24;100429.53;;;23.39;100.00
8286;BME280;4181;43.416;24.598;2022-11-02T08:01:49;100429.22;;;23.49;100.00
8286;BME280;4181;43.416;24.598;2022-11-02T08:04:15;100431.66;;;23.59;100.00
8286;BME280;4181;43.416;24.598;2022-11-02T08:06:40;100420.00;;;23.66;100.00
8286;BME280;4181;43.416;24.598;2022-11-02T08:09:06;100415.59;;;23.65;100.00
8286;BME280;4181;43.416;24.598;2022-11-02T08:11:33;100420.69;;;23.46;100.00
8286;BME280;4181;43.416;24.598;2022-11-02T08:13:58;100422.63;;;23.62;100.00
8286;BME280;4181;43.416;24.598;2022-11-02T08:16:24;100416.03;;;23.75;100.00
8286;BME280;4181;43.416;24.598;2022-11-02T08:18:49;100403.00;;;24.05;100.00
8286;BME280;4181;43.416;24.598;2022-11-02T08:21:15;100400.84;;;24.11;100.00
8286;BME280;4181;43.416;24.598;2022-11-02T08:23:40;100404.06;;;24.30;100.00
8286;BME280;4181;43.416;24.598;2022-11-02T08:26:05;100402.63;;;24.53;100.00
8286;BME280;4181;43.416;24.598;2022-11-02T08:28:31;100401.78;;;24.52;100.00
8286;BME280;4181;43.416;24.598;2022-11-02T08:31:00;100403.91;;;24.55;100.00
8286;BME280;4181;43.416;24.598;2022-11-02T08:33:26;100398.75;;;24.66;100.00
8286;BME280;4181;43.416;24.598;2022-11-02T08:35:51;100396.22;;;24.81;100.00
8286;BME280;4181;43.416;24.598;2022-11-02T08:38:18;100404.88;;;24.59;100.00
8286;BME280;4181;43.416;24.598;2022-11-02T08:40:46;100393.56;;;24.85;100.00
8286;BME280;4181;43.416;24.598;2022-11-02T08:43:13;100384.97;;;25.11;100.00
8286;BME280;4181;43.416;24.598;2022-11-02T08:45:40;100381.59;;;25.05;100.00
8286;BME280;4181;43.416;24.598;2022-11-02T08:48:07;100391.25;;;25.28;100.00
8286;BME280;4181;43.416;24.598;2022-11-02T08:50:33;100379.28;;;25.60;100.00
8286;BME280;4181;43.416;24.598;2022-11-02T08:52:59;100376.03;;;25.70;100.00
8286;BME280;4181;43.416;24.598;2022-11-02T08:55:25;100368.44;;;26.03;100.00
8286;BME280;4181;43.416;24.598;2022-11-02T08:57:55;100366.56;;;26.32;100.00
8286;BME280;4181;43.416;24.598;2022-11-02T09:00:23;100354.19;;;26.69;100.00
8286;BME280;4181;43.416;24.598;2022-11-02T09:03:05;100350.56;;;27.08;100.00
8286;BME280;4181;43.416;24.598;2022-11-02T09:05:35;100348.41;;;27.29;100.00
8286;BME280;4181;43.416;24.598;2022-11-02T09:08:03;100352.78;;;27.42;100.00
8286;BME280;4181;43.416;24.598;2022-11-02T09:10:31;100347.47;;;27.53;100.00
8286;BME280;4181;43.416;24.598;2022-11-02T09:12:58;100342.97;;;27.79;100.00
8286;BME280;4181;43.416;24.598;2022-11-02T09:15:24;100337.91;;;27.85;100.00
8286;BME280;4181;43.416;24.598;2022-11-02T09:17:50;100335.16;;;28.00;100.00
8286;BME280;4181;43.416;24.598;2022-11-02T09:20:16;100326.19;;;28.10;100.00
8286;BME280;4181;43.416;24.598;2022-11-02T09:22:43;100330.88;;;28.22;100.00
8286;BME280;4181;43.416;24.598;2022-11-02T09:25:09;100328.75;;;28.34;100.00
8286;BME280;4181;43.416;24.598;2022-11-02T09:27:34;100321.16;;;28.35;100.00
8286;BME280;4181;43.416;24.598;2022-11-02T09:30:01;100312.81;;;28.38;100.00
8286;BME280;4181;43.416;24.598;2022-11-02T09:32:28;100327.00;;;28.61;100.00
8286;BME280;4181;43.416;24.598;2022-11-02T09:35:04;100320.88;;;28.75;100.00
8286;BME280;4181;43.416;24.598;2022-11-02T09:37:30;100321.06;;;29.01;100.00
8286;BME280;4181;43.416;24.598;2022-11-02T09:39:56;100302.06;;;29.13;100.00
8286;BME280;4181;43.416;24.598;2022-11-02T09:45:22;100305.09;;;29.24;100.00
8286;BME280;4181;43.416;24.598;2022-11-02T09:47:51;100312.25;;;29.21;100.00
8286;BME280;4181;43.416;24.598;2022-11-02T09:50:22;100306.16;;;29.16;100.00
8286;BME280;4181;43.416;24.598;2022-11-02T09:52:55;100298.66;;;29.23;100.00
8286;BME280;4181;43.416;24.598;2022-11-02T09:55:26;100286.81;;;29.33;100.00
8286;BME280;4181;43.416;24.598;2022-11-02T09:57:58;100288.31;;;29.69;100.00
8286;BME280;4181;43.416;24.598;2022-11-02T10:00:29;100284.34;;;29.73;100.00
8286;BME280;4181;43.416;24.598;2022-11-02T10:08:23;100278.69;;;29.96;100.00
8286;BME280;4181;43.416;24.598;2022-11-02T10:11:29;100276.06;;;30.07;100.00
8286;BME280;4181;43.416;24.598;2022-11-02T10:14:07;100271.75;;;30.13;100.00
8286;BME280;4181;43.416;24.598;2022-11-02T10:16:43;100263.47;;;30.23;100.00
8286;BME280;4181;43.416;24.598;2022-11-02T10:19:18;100258.06;;;30.37;100.00
8286;BME280;4181;43.416;24.598;2022-11-02T10:21:47;100262.97;;;30.44;100.00
8286;BME280;4181;43.416;24.598;2022-11-02T10:24:23;100258.19;;;30.44;100.00
8286;BME280;4181;43.416;24.598;2022-11-02T10:26:53;100269.84;;;30.20;100.00
8286;BME280;4181;43.416;24.598;2022-11-02T10:29:50;100261.72;;;30.15;100.00
8286;BME280;4181;43.416;24.598;2022-11-02T10:32:19;100265.94;;;30.02;100.00
8286;BME280;4181;43.416;24.598;2022-11-02T10:34:45;100259.03;;;30.22;100.00
8286;BME280;4181;43.416;24.598;2022-11-02T10:40:02;100249.72;;;30.74;100.00
8286;BME280;4181;43.416;24.598;2022-11-02T10:51:23;100246.06;;;30.73;100.00
8286;BME280;4181;43.416;24.598;2022-11-02T10:53:51;100239.25;;;30.74;100.00
8286;BME280;4181;43.416;24.598;2022-11-02T10:56:22;100235.91;;;30.65;100.00
8286;BME280;4181;43.416;24.598;2022-11-02T11:01:34;100230.94;;;30.85;100.00
8286;BME280;4181;43.416;24.598;2022-11-02T11:04:05;100234.25;;;30.61;100.00
8286;BME280;4181;43.416;24.598;2022-11-02T11:06:41;100224.50;;;30.55;100.00
8286;BME280;4181;43.416;24.598;2022-11-02T11:09:22;100232.66;;;30.63;100.00
8286;BME280;4181;43.416;24.598;2022-11-02T11:12:02;100214.19;;;30.66;100.00
8286;BME280;4181;43.416;24.598;2022-11-02T11:14:31;100223.00;;;30.61;100.00
8286;BME280;4181;43.416;24.598;2022-11-02T11:17:00;100220.22;;;30.64;100.00
8286;BME280;4181;43.416;24.598;2022-11-02T11:19:38;100219.53;;;30.74;100.00
8286;BME280;4181;43.416;24.598;2022-11-02T11:25:25;100213.19;;;30.81;100.00
8286;BME280;4181;43.416;24.598;2022-11-02T11:27:56;100214.00;;;30.52;100.00
8286;BME280;4181;43.416;24.598;2022-11-02T11:30:32;100211.66;;;30.57;100.00
8286;BME280;4181;43.416;24.598;2022-11-02T11:33:01;100206.81;;;30.54;100.00
8286;BME280;4181;43.416;24.598;2022-11-02T11:35:38;100214.00;;;30.52;100.00
8286;BME280;4181;43.416;24.598;2022-11-02T11:38:09;100210.91;;;30.60;100.00
8286;BME280;4181;43.416;24.598;2022-11-02T11:40:43;100196.34;;;30.55;100.00
8286;BME280;4181;43.416;24.598;2022-11-02T11:43:11;100197.69;;;30.64;100.00
8286;BME280;4181;43.416;24.598;2022-11-02T11:45:39;100201.25;;;30.61;100.00
8286;BME280;4181;43.416;24.598;2022-11-02T11:48:33;100193.75;;;30.39;100.00
8286;BME280;4181;43.416;24.598;2022-11-02T11:51:01;100197.72;;;30.38;100.00
8286;BME280;4181;43.416;24.598;2022-11-02T11:53:29;100200.38;;;30.24;100.00
8286;BME280;4181;43.416;24.598;2022-11-02T11:55:59;100194.88;;;30.09;100.00
8286;BME280;4181;43.416;24.598;2022-11-02T12:03:55;100200.16;;;29.84;100.00
8286;BME280;4181;43.416;24.598;2022-11-02T12:09:08;100190.44;;;29.82;100.00
8286;BME280;4181;43.416;24.598;2022-11-02T12:12:58;100180.59;;;29.68;100.00
8286;BME280;4181;43.416;24.598;2022-11-02T12:20:54;100170.28;;;29.53;100.00
8286;BME280;4181;43.416;24.598;2022-11-02T12:32:47;100157.75;;;29.47;100.00
8286;BME280;4181;43.416;24.598;2022-11-02T12:49:14;100163.72;;;29.01;100.00
8286;BME280;4181;43.416;24.598;2022-11-02T12:52:45;100162.59;;;29.05;100.00
8286;BME280;4181;43.416;24.598;2022-11-02T12:54:59;100155.94;;;28.94;100.00
8286;BME280;4181;43.416;24.598;2022-11-02T12:57:29;100156.63;;;28.88;100.00
8286;BME280;4181;43.416;24.598;2022-11-02T13:00:04;100164.66;;;28.86;100.00
8286;BME280;4181;43.416;24.598;2022-11-02T13:05:21;100167.63;;;28.74;100.00
8286;BME280;4181;43.416;24.598;2022-11-02T13:10:25;100168.97;;;28.61;100.00
8286;BME280;4181;43.416;24.598;2022-11-02T13:12:58;100169.56;;;28.50;100.00
8286;BME280;4181;43.416;24.598;2022-11-02T13:15:25;100170.53;;;28.42;100.00
8286;BME280;4181;43.416;24.598;2022-11-02T13:17:55;100164.94;;;28.42;100.00
8286;BME280;4181;43.416;24.598;2022-11-02T13:20:38;100168.09;;;28.41;100.00
8286;BME280;4181;43.416;24.598;2022-11-02T13:23:29;100167.31;;;28.40;100.00
8286;BME280;4181;43.416;24.598;2022-11-02T13:25:58;100161.91;;;28.32;100.00
8286;BME280;4181;43.416;24.598;2022-11-02T13:31:20;100164.41;;;28.18;100.00
8286;BME280;4181;43.416;24.598;2022-11-02T13:33:52;100163.13;;;27.96;100.00
8286;BME280;4181;43.416;24.598;2022-11-02T13:36:19;100156.28;;;27.94;100.00
8286;BME280;4181;43.416;24.598;2022-11-02T13:38:48;100158.72;;;27.95;100.00
8286;BME280;4181;43.416;24.598;2022-11-02T13:49:54;100165.72;;;27.55;100.00
8286;BME280;4181;43.416;24.598;2022-11-02T13:52:30;100160.66;;;27.45;100.00
8286;BME280;4181;43.416;24.598;2022-11-02T13:55:01;100159.31;;;27.38;100.00
8286;BME280;4181;43.416;24.598;2022-11-02T13:57:45;100157.25;;;27.35;100.00
8286;BME280;4181;43.416;24.598;2022-11-02T14:03:04;100155.25;;;27.20;100.00
8286;BME280;4181;43.416;24.598;2022-11-02T14:05:44;100152.63;;;27.12;100.00
8286;BME280;4181;43.416;24.598;2022-11-02T14:08:18;100158.75;;;27.02;100.00
8286;BME280;4181;43.416;24.598;2022-11-02T14:27:25;100155.44;;;26.69;100.00
8286;BME280;4181;43.416;24.598;2022-11-02T14:40:08;100154.16;;;26.39;100.00
8286;BME280;4181;43.416;24.598;2022-11-02T14:48:18;100155.16;;;26.18;100.00
8286;BME280;4181;43.416;24.598;2022-11-02T14:50:57;100156.56;;;26.00;100.00
8286;BME280;4181;43.416;24.598;2022-11-02T14:53:26;100162.06;;;25.97;100.00
8286;BME280;4181;43.416;24.598;2022-11-02T14:55:55;100164.06;;;25.84;100.00
8286;BME280;4181;43.416;24.598;2022-11-02T14:58:32;100159.06;;;25.78;100.00
8286;BME280;4181;43.416;24.598;2022-11-02T15:01:01;100168.28;;;25.66;100.00
8286;BME280;4181;43.416;24.598;2022-11-02T15:03:31;100166.78;;;25.45;100.00
8286;BME280;4181;43.416;24.598;2022-11-02T15:08:32;100184.66;;;25.20;100.00
8286;BME280;4181;43.416;24.598;2022-11-02T15:10:58;100187.06;;;25.09;100.00
8286;BME280;4181;43.416;24.598;2022-11-02T15:13:40;100189.81;;;24.97;100.00
8286;BME280;4181;43.416;24.598;2022-11-02T15:18:37;100209.78;;;24.75;100.00
8286;BME280;4181;43.416;24.598;2022-11-02T15:26:58;100236.44;;;24.23;100.00
8286;BME280;4181;43.416;24.598;2022-11-02T15:29:35;100236.38;;;24.11;100.00
8286;BME280;4181;43.416;24.598;2022-11-02T15:32:07;100241.66;;;24.04;100.00
8286;BME280;4181;43.416;24.598;2022-11-02T15:34:43;100240.38;;;24.01;100.00
8286;BME280;4181;43.416;24.598;2022-11-02T15:37:18;100245.78;;;23.98;100.00
8286;BME280;4181;43.416;24.598;2022-11-02T15:39:55;100253.16;;;23.94;100.00
8286;BME280;4181;43.416;24.598;2022-11-02T15:43:07;100247.13;;;23.92;100.00